createdAt,value
2022-09-07T00:02:40.107Z,13.02
2022-09-07T00:05:45.885Z,12.77
2022-09-07T00:08:49.302Z,13.93
2022-09-07T00:11:52.772Z,16.00
2022-09-07T00:14:56.402Z,13.02
2022-09-07T00:17:59.842Z,14.15
2022-09-07T00:21:07.839Z,16.65
2022-09-07T00:24:11.309Z,12.85
2022-09-07T00:27:14.678Z,13.07
2022-09-07T00:30:18.233Z,12.05
2022-09-07T00:33:21.592Z,12.20
2022-09-07T00:36:26.489Z,11.05
2022-09-07T00:39:30.057Z,12.48
2022-09-07T00:42:33.605Z,15.20
2022-09-07T00:45:36.985Z,11.27
2022-09-07T00:48:46.093Z,8.50
2022-09-07T00:58:41.811Z,12.05
2022-09-07T01:11:51.146Z,6.20
2022-09-07T01:14:55.822Z,9.32
2022-09-07T01:18:06.536Z,10.27
2022-09-07T01:21:23.166Z,8.57
2022-09-07T01:24:54.237Z,14.02
2022-09-07T01:28:09.533Z,11.65
2022-09-07T01:31:21.844Z,12.55
2022-09-07T01:34:27.239Z,9.95
2022-09-07T01:37:39.580Z,11.50
2022-09-07T01:40:52.575Z,13.65
2022-09-07T01:44:03.208Z,12.05
2022-09-07T01:47:10.460Z,10.60
2022-09-07T01:50:19.548Z,12.07
2022-09-07T01:53:28.248Z,12.93
2022-09-07T01:56:36.160Z,15.55
2022-09-07T01:59:43.764Z,10.98
2022-09-07T02:02:52.593Z,11.45
2022-09-07T02:06:01.225Z,13.38
2022-09-07T02:09:08.587Z,12.32
2022-09-07T02:12:17.793Z,14.00
2022-09-07T02:15:26.195Z,12.57
2022-09-07T02:18:34.551Z,13.05
2022-09-07T02:21:41.264Z,9.98
2022-09-07T02:24:47.732Z,14.00
2022-09-07T02:27:56.146Z,11.45
2022-09-07T02:31:01.661Z,13.27
2022-09-07T02:34:05.311Z,11.75
2022-09-07T02:37:11.119Z,12.48
2022-09-07T02:40:15.019Z,15.95
2022-09-07T02:43:18.408Z,13.10
2022-09-07T02:46:36.126Z,14.30
2022-09-07T02:50:01.155Z,10.27
2022-09-07T02:53:16.545Z,12.15
2022-09-07T02:56:31.203Z,14.43
2022-09-07T02:59:49.438Z,13.40
2022-09-07T03:03:01.773Z,12.07
2022-09-07T03:06:10.964Z,10.88
2022-09-07T03:09:18.297Z,12.50
2022-09-07T03:12:22.062Z,12.65
2022-09-07T03:15:27.842Z,14.60
2022-09-07T03:18:32.807Z,13.52
2022-09-07T03:21:36.783Z,12.38
2022-09-07T03:24:40.405Z,11.13
2022-09-07T03:27:44.044Z,13.40
2022-09-07T03:31:06.375Z,12.88
2022-09-07T03:34:11.599Z,13.38
2022-09-07T03:37:15.210Z,12.32
2022-09-07T03:40:18.872Z,16.48
2022-09-07T03:43:22.237Z,14.98
2022-09-07T03:46:25.676Z,14.98
2022-09-07T03:49:30.899Z,14.02
2022-09-07T03:52:35.758Z,14.70
2022-09-07T03:55:39.880Z,14.35
2022-09-07T03:58:48.920Z,18.20
2022-09-07T04:01:52.613Z,14.65
2022-09-07T04:04:57.497Z,14.52
2022-09-07T04:08:00.822Z,12.07
2022-09-07T04:11:05.485Z,15.70
2022-09-07T04:14:09.307Z,13.95
2022-09-07T04:17:12.691Z,14.88
2022-09-07T04:20:17.638Z,12.75
2022-09-07T04:23:21.289Z,13.43
2022-09-07T04:26:27.219Z,15.40
2022-09-07T04:29:30.584Z,14.18
2022-09-07T04:32:34.072Z,18.35
2022-09-07T04:35:39.506Z,11.77
2022-09-07T04:38:45.724Z,13.27
2022-09-07T04:41:49.354Z,15.38
2022-09-07T04:44:52.688Z,16.92
2022-09-07T04:47:56.511Z,17.65
2022-09-07T04:51:07.172Z,18.35
2022-09-07T04:54:11.409Z,15.30
2022-09-07T04:57:14.958Z,14.75
2022-09-07T05:00:18.768Z,17.10
2022-09-07T05:03:22.592Z,18.98
2022-09-07T05:06:27.400Z,22.95
2022-09-07T05:09:30.878Z,19.08
2022-09-07T05:12:34.518Z,24.80
2022-09-07T05:15:38.825Z,25.70
2022-09-07T05:18:42.414Z,17.23
2022-09-07T05:21:47.385Z,26.02
2022-09-07T05:24:51.048Z,27.98
2022-09-07T05:27:54.570Z,19.73
2022-09-07T05:31:20.727Z,41.90
2022-09-07T05:34:32.206Z,22.15
2022-09-07T05:37:37.489Z,16.20
2022-09-07T05:40:41.121Z,17.90
2022-09-07T05:47:08.875Z,16.45
2022-09-07T05:50:12.390Z,15.50
2022-09-07T05:53:17.272Z,13.73
2022-09-07T05:56:20.668Z,17.30
2022-09-07T05:59:24.034Z,24.92
2022-09-07T06:02:27.490Z,16.23
2022-09-07T06:05:31.029Z,17.40
2022-09-07T06:08:37.948Z,16.35
2022-09-07T06:11:41.330Z,21.77
2022-09-07T06:14:44.718Z,16.52
2022-09-07T06:17:50.079Z,21.27
2022-09-07T06:20:53.435Z,20.17
2022-09-07T06:23:59.868Z,30.27
2022-09-07T06:27:03.310Z,31.08
2022-09-07T06:30:07.963Z,17.17
2022-09-07T06:33:11.304Z,21.85
2022-09-07T06:36:16.016Z,15.13
2022-09-07T06:39:20.837Z,18.75
2022-09-07T06:42:24.248Z,17.83
2022-09-07T06:45:29.810Z,12.48
2022-09-07T06:48:33.763Z,18.27
2022-09-07T06:51:37.198Z,14.15
2022-09-07T06:58:00.585Z,17.48
2022-09-07T07:01:07.837Z,13.00
2022-09-07T07:04:11.310Z,12.75
2022-09-07T07:07:16.260Z,13.20
2022-09-07T07:10:24.486Z,13.13
2022-09-07T07:13:28.253Z,9.48
2022-09-07T07:16:31.747Z,9.68
2022-09-07T07:19:35.167Z,9.15
2022-09-07T07:22:46.947Z,9.52
2022-09-07T07:25:51.944Z,16.17
2022-09-07T07:32:02.067Z,14.15
2022-09-07T07:35:07.518Z,9.38
2022-09-07T07:51:31.773Z,12.30
2022-09-07T07:54:54.616Z,16.83
2022-09-07T07:57:59.350Z,7.68
2022-09-07T08:01:04.537Z,7.97
2022-09-07T08:04:08.201Z,13.20
2022-09-07T08:07:13.091Z,13.82
2022-09-07T08:10:16.613Z,9.07
2022-09-07T08:13:21.794Z,9.57
2022-09-07T08:16:25.768Z,6.07
2022-09-07T08:19:29.186Z,11.68
2022-09-07T08:22:34.825Z,8.75
2022-09-07T08:25:38.278Z,6.55
2022-09-07T08:28:46.267Z,9.02
2022-09-07T08:31:49.721Z,6.80
2022-09-07T08:34:53.145Z,12.90
2022-09-07T08:37:56.472Z,10.55
2022-09-07T08:41:00.231Z,6.05
2022-09-07T08:44:11.680Z,8.45
2022-09-07T08:47:23.742Z,7.47
2022-09-07T08:50:33.784Z,6.88
2022-09-07T08:53:41.671Z,9.48
2022-09-07T09:00:16.253Z,8.40
2022-09-07T09:03:30.650Z,6.43
2022-09-07T09:06:43.787Z,8.70
2022-09-07T09:10:22.500Z,8.95
2022-09-07T09:13:37.280Z,8.07
2022-09-07T09:16:45.500Z,7.18
2022-09-07T09:20:00.292Z,9.70
2022-09-07T09:23:12.290Z,7.88
2022-09-07T09:26:21.137Z,8.38
2022-09-07T09:29:24.786Z,7.35
2022-09-07T09:32:41.535Z,7.25
2022-09-07T09:35:46.404Z,9.00
2022-09-07T09:38:49.603Z,8.90
2022-09-07T09:41:53.782Z,9.55
2022-09-07T09:45:04.819Z,8.75
2022-09-07T09:48:20.511Z,9.13
2022-09-07T09:54:53.792Z,6.25
2022-09-07T10:01:26.848Z,6.90
2022-09-07T10:04:35.184Z,8.38
2022-09-07T10:07:38.558Z,9.38
2022-09-07T10:10:55.510Z,12.82
2022-09-07T10:13:59.053Z,8.90
2022-09-07T10:17:11.491Z,7.72
2022-09-07T10:20:34.798Z,5.63
2022-09-07T10:23:38.140Z,8.32
2022-09-07T10:26:44.471Z,4.55
2022-09-07T10:29:47.846Z,10.57
2022-09-07T10:33:00.345Z,8.23
2022-09-07T10:36:11.796Z,9.05
2022-09-07T10:39:19.242Z,8.02
2022-09-07T10:42:29.344Z,10.15
2022-09-07T10:45:43.102Z,7.95
2022-09-07T10:48:57.041Z,11.50
2022-09-07T10:52:11.777Z,11.32
2022-09-07T10:55:22.326Z,9.65
2022-09-07T11:02:04.910Z,10.10
2022-09-07T11:05:19.707Z,12.25
2022-09-07T11:09:15.903Z,9.45
2022-09-07T11:12:04.426Z,7.55
2022-09-07T11:15:19.553Z,5.67
2022-09-07T11:18:27.062Z,8.43
2022-09-07T11:28:45.185Z,11.40
2022-09-07T11:31:52.843Z,16.02
2022-09-07T11:35:00.174Z,7.03
2022-09-07T11:38:13.584Z,8.43
2022-09-07T11:41:30.817Z,10.15
2022-09-07T11:44:42.718Z,6.40
2022-09-07T11:47:51.152Z,6.93
2022-09-07T11:51:01.026Z,8.43
2022-09-07T11:54:19.840Z,6.32
2022-09-07T11:57:40.866Z,9.05
2022-09-07T12:00:53.581Z,11.02
2022-09-07T12:04:24.872Z,11.13
2022-09-07T12:07:54.948Z,8.30
2022-09-07T12:11:08.396Z,6.97
2022-09-07T12:14:34.682Z,7.43
2022-09-07T12:17:49.291Z,8.93
2022-09-07T12:20:52.660Z,7.80
2022-09-07T12:23:56.094Z,13.18
2022-09-07T12:27:00.321Z,8.05
2022-09-07T12:30:50.398Z,8.82
2022-09-07T12:34:33.552Z,10.52
2022-09-07T12:37:40.219Z,9.50
2022-09-07T12:41:00.665Z,9.52
2022-09-07T12:44:11.075Z,13.02
2022-09-07T12:47:30.846Z,9.82
2022-09-07T12:50:40.107Z,9.43
2022-09-07T12:53:57.909Z,12.55
2022-09-07T13:00:53.733Z,6.03
2022-09-07T13:04:46.900Z,9.93
2022-09-07T13:08:16.305Z,12.82
2022-09-07T13:11:32.888Z,9.60
2022-09-07T13:14:39.602Z,6.75
2022-09-07T13:17:44.683Z,8.52
2022-09-07T13:21:18.897Z,6.30
2022-09-07T13:24:52.673Z,8.50
2022-09-07T13:27:58.414Z,6.57
2022-09-07T13:31:49.564Z,8.65
2022-09-07T13:35:04.791Z,6.25
2022-09-07T13:38:13.414Z,9.52
2022-09-07T13:41:22.774Z,7.10
2022-09-07T13:44:29.516Z,10.43
2022-09-07T13:47:42.592Z,7.82
2022-09-07T13:50:54.147Z,7.82
2022-09-07T13:54:04.210Z,13.93
2022-09-07T14:00:18.480Z,12.52
2022-09-07T14:03:25.843Z,12.02
2022-09-07T14:06:35.101Z,11.90
2022-09-07T14:09:38.804Z,6.77
2022-09-07T14:12:52.320Z,10.95
2022-09-07T14:15:56.515Z,7.60
2022-09-07T14:19:00.197Z,13.30
2022-09-07T14:22:12.684Z,8.30
2022-09-07T14:25:18.956Z,6.18
2022-09-07T14:28:38.293Z,10.27
2022-09-07T14:31:41.922Z,13.88
2022-09-07T14:34:46.229Z,6.90
2022-09-07T14:38:00.750Z,10.27
2022-09-07T14:45:16.983Z,9.90
2022-09-07T14:48:31.506Z,7.82
2022-09-07T14:51:37.031Z,5.93
2022-09-07T14:54:41.535Z,6.90
2022-09-07T14:57:44.812Z,9.55
2022-09-07T15:04:32.397Z,9.82
2022-09-07T15:07:39.548Z,11.38
2022-09-07T15:11:32.799Z,10.00
2022-09-07T15:17:42.847Z,5.85
2022-09-07T15:20:47.197Z,7.68
2022-09-07T15:23:53.793Z,10.38
2022-09-07T15:27:01.866Z,9.20
2022-09-07T15:30:06.563Z,7.85
2022-09-07T15:33:11.886Z,14.45
2022-09-07T15:36:20.692Z,8.45
2022-09-07T15:39:30.316Z,7.95
2022-09-07T15:45:59.604Z,10.25
2022-09-07T15:49:04.997Z,6.72
2022-09-07T15:52:34.676Z,26.38
2022-09-07T15:55:38.719Z,12.23
2022-09-07T15:58:43.861Z,11.00
2022-09-07T16:01:52.533Z,13.10
2022-09-07T16:05:01.919Z,11.38
2022-09-07T16:11:45.421Z,8.98
2022-09-07T16:14:56.684Z,13.38
2022-09-07T16:18:01.284Z,10.40
2022-09-07T16:21:11.842Z,17.35
2022-09-07T16:24:34.101Z,11.57
2022-09-07T16:27:38.548Z,10.77
2022-09-07T16:30:59.346Z,10.32
2022-09-07T16:41:37.499Z,11.43
2022-09-07T16:44:44.803Z,8.77
2022-09-07T16:47:54.444Z,12.23
2022-09-07T16:51:01.931Z,8.00
2022-09-07T16:54:07.841Z,8.80
2022-09-07T16:57:15.551Z,10.25
2022-09-07T17:00:19.279Z,8.43
2022-09-07T17:03:22.496Z,12.15
2022-09-07T17:06:27.852Z,9.68
2022-09-07T17:09:32.881Z,12.27
2022-09-07T17:12:37.741Z,15.00
2022-09-07T17:15:40.955Z,15.57
2022-09-07T17:22:09.202Z,18.92
2022-09-07T17:25:14.272Z,21.83
2022-09-07T17:28:17.844Z,22.70
2022-09-07T17:34:49.687Z,27.27
2022-09-07T17:37:53.170Z,30.95
2022-09-07T17:40:58.048Z,28.08
2022-09-07T17:44:01.706Z,35.17
2022-09-07T17:47:05.280Z,25.00
2022-09-07T17:50:09.267Z,26.58
2022-09-07T17:53:12.627Z,30.45
2022-09-07T17:56:18.140Z,27.55
2022-09-07T18:02:46.323Z,29.15
2022-09-07T18:05:55.156Z,29.98
2022-09-07T18:09:00.078Z,39.10
2022-09-07T18:12:06.062Z,27.83
2022-09-07T18:15:14.750Z,27.98
2022-09-07T18:18:20.325Z,29.88
2022-09-07T18:21:26.508Z,33.50
2022-09-07T18:24:32.460Z,34.50
2022-09-07T18:27:39.487Z,31.35
2022-09-07T18:30:43.735Z,37.95
2022-09-07T18:33:47.741Z,33.03
2022-09-07T18:36:52.394Z,32.45
2022-09-07T18:39:56.441Z,34.83
2022-09-07T18:43:04.223Z,39.50
2022-09-07T18:46:10.604Z,35.42
2022-09-07T18:49:14.878Z,31.08
2022-09-07T18:55:42.678Z,32.25
2022-09-07T18:58:48.404Z,42.03
2022-09-07T19:01:57.617Z,35.70
2022-09-07T19:08:32.320Z,34.42
2022-09-07T19:11:37.753Z,37.75
2022-09-07T19:14:52.058Z,29.90
2022-09-07T19:17:58.918Z,34.75
2022-09-07T19:21:07.818Z,30.77
2022-09-07T19:24:15.954Z,30.10
2022-09-07T19:27:20.305Z,35.60
2022-09-07T19:30:26.348Z,37.38
2022-09-07T19:33:29.979Z,27.05
2022-09-07T19:36:36.008Z,33.90
2022-09-07T19:39:39.836Z,32.83
2022-09-07T19:42:45.185Z,29.38
2022-09-07T19:45:53.252Z,33.42
2022-09-07T19:48:58.824Z,35.67
2022-09-07T19:52:03.006Z,32.53
2022-09-07T19:55:07.561Z,32.50
2022-09-07T19:58:12.203Z,34.60
2022-09-07T20:01:25.167Z,36.38
2022-09-07T20:04:30.387Z,35.15
2022-09-07T20:07:33.973Z,31.60
2022-09-07T20:10:40.507Z,32.08
2022-09-07T20:13:45.402Z,36.65
2022-09-07T20:16:56.005Z,31.02
2022-09-07T20:20:01.702Z,25.52
2022-09-07T20:23:07.186Z,32.50
2022-09-07T20:26:15.121Z,30.27
2022-09-07T20:29:34.078Z,32.30
2022-09-07T20:32:40.268Z,29.27
2022-09-07T20:35:45.325Z,31.23
2022-09-07T20:38:50.567Z,37.60
2022-09-07T20:41:54.063Z,34.25
2022-09-07T20:44:57.403Z,34.20
2022-09-07T20:48:02.096Z,30.80
2022-09-07T20:51:09.266Z,29.48
2022-09-07T20:54:12.804Z,27.65
2022-09-07T20:57:16.063Z,33.78
2022-09-07T21:00:19.937Z,27.00
2022-09-07T21:03:25.014Z,31.63
2022-09-07T21:06:29.823Z,28.80
2022-09-07T21:09:33.084Z,27.70
2022-09-07T21:12:37.085Z,26.20
2022-09-07T21:15:40.694Z,32.30
2022-09-07T21:18:45.885Z,27.58
2022-09-07T21:21:49.385Z,30.25
2022-09-07T21:24:52.653Z,30.67
2022-09-07T21:27:55.995Z,25.63
2022-09-07T21:31:00.392Z,37.25
2022-09-07T21:34:05.300Z,34.97
2022-09-07T21:37:08.614Z,29.08
2022-09-07T21:40:12.507Z,25.45
2022-09-07T21:43:17.127Z,32.90
2022-09-07T21:46:20.810Z,33.05
2022-09-07T21:49:25.606Z,30.77
2022-09-07T21:52:28.810Z,36.58
2022-09-07T21:55:31.985Z,31.40
2022-09-07T21:58:35.832Z,28.40
2022-09-07T22:01:39.151Z,30.33
2022-09-07T22:04:43.869Z,27.98
2022-09-07T22:07:47.201Z,30.48
2022-09-07T22:10:50.475Z,32.03
2022-09-07T22:13:55.853Z,30.23
2022-09-07T22:16:59.519Z,27.02
2022-09-07T22:20:04.829Z,28.73
2022-09-07T22:23:08.193Z,26.92
2022-09-07T22:26:11.662Z,25.35
2022-09-07T22:29:14.913Z,32.53
2022-09-07T22:32:18.222Z,32.00
2022-09-07T22:35:24.883Z,29.77
2022-09-07T22:38:29.126Z,32.45
2022-09-07T22:41:34.402Z,27.75
2022-09-07T22:44:38.923Z,29.08
2022-09-07T22:47:43.288Z,26.58
2022-09-07T22:50:55.705Z,25.65
2022-09-07T22:53:59.526Z,25.92
2022-09-07T22:57:02.820Z,27.92
2022-09-07T23:00:07.460Z,25.83
2022-09-07T23:03:10.829Z,27.35
2022-09-07T23:06:30.905Z,24.00
2022-09-07T23:09:34.193Z,21.65
2022-09-07T23:12:37.498Z,32.05
2022-09-07T23:15:40.810Z,25.88
2022-09-07T23:18:44.087Z,21.90
2022-09-07T23:21:48.925Z,27.70
2022-09-07T23:24:52.256Z,26.23
2022-09-07T23:27:55.475Z,22.73
2022-09-07T23:30:59.144Z,25.42
2022-09-07T23:34:03.015Z,24.08
2022-09-07T23:37:07.603Z,24.50
2022-09-07T23:40:11.634Z,24.08
2022-09-07T23:43:14.904Z,24.27
2022-09-07T23:46:18.241Z,19.90
2022-09-07T23:49:21.487Z,22.48
2022-09-07T23:52:26.064Z,26.55
2022-09-07T23:55:29.796Z,22.88
2022-09-07T23:58:32.962Z,26.52
